Time;durP1;ratioP1;P1;durP2;ratioP2;P2;SDS_P1;SDS_P2;PMS_P1;PMS_P2;Temp;Humidity;BMP_temperature;BMP_pressure;BME280_temperature;BME280_humidity;BME280_pressure;Samples;Min_cycle;Max_cycle;Signal;HPM_P1;HPM_P2
2022/09/10 00:00:39;;;;;;;17.73;4.03;;;16.20;99.90;;;;;;5053720;28;20047;-73
2022/09/10 00:03:05;;;;;;;22.90;4.53;;;16.20;99.90;;;;;;5053791;28;20024;-78
2022/09/10 00:05:42;;;;;;;17.33;4.55;;;16.30;99.90;;;;;;5035850;28;20065;-74
2022/09/10 00:08:09;;;;;;;20.77;4.05;;;16.30;99.90;;;;;;5035772;28;20025;-75
2022/09/10 00:10:39;;;;;;;15.48;4.50;;;16.20;99.90;;;;;;5053220;28;20396;-73
2022/09/10 00:13:06;;;;;;;16.98;3.90;;;16.00;99.90;;;;;;5053368;28;20036;-74
2022/09/10 00:15:36;;;;;;;24.52;4.45;;;16.00;99.90;;;;;;5053815;28;20051;-74
2022/09/10 00:18:02;;;;;;;25.10;4.55;;;16.00;99.90;;;;;;5053562;28;20025;-75
2022/09/10 00:20:27;;;;;;;17.85;5.07;;;16.00;99.90;;;;;;5053175;28;20746;-74
2022/09/10 00:22:53;;;;;;;13.50;3.85;;;16.00;99.90;;;;;;5053554;28;20032;-78
2022/09/10 00:25:19;;;;;;;18.30;4.47;;;16.10;99.90;;;;;;5052759;28;20009;-73
2022/09/10 00:27:45;;;;;;;19.02;4.70;;;16.00;99.90;;;;;;5053712;28;20033;-74
2022/09/10 00:30:11;;;;;;;24.70;4.50;;;16.00;99.90;;;;;;5051940;28;20544;-74
2022/09/10 00:32:37;;;;;;;18.67;3.90;;;16.00;99.90;;;;;;5053196;28;20485;-75
2022/09/10 00:35:03;;;;;;;15.82;4.20;;;16.10;99.90;;;;;;5035200;28;20040;-75
2022/09/10 00:37:29;;;;;;;26.27;5.10;;;16.10;99.90;;;;;;5051847;28;20028;-75
2022/09/10 00:39:55;;;;;;;21.80;4.22;;;16.10;99.90;;;;;;5052846;28;20044;-75
2022/09/10 00:42:21;;;;;;;17.65;4.20;;;16.10;99.90;;;;;;5068551;28;20021;-74
2022/09/10 00:45:06;;;;;;;17.90;3.90;;;16.10;99.90;;;;;;5051685;28;20021;-77
2022/09/10 00:47:38;;;;;;;18.23;4.47;;;16.00;99.90;;;;;;5052717;28;20036;-80
2022/09/10 00:50:06;;;;;;;;;;;16.10;99.90;;;;;;5053623;28;20029;-75
2022/09/10 00:52:33;;;;;;;21.30;4.55;;;16.10;99.90;;;;;;5053004;28;20406;-79
2022/09/10 00:55:00;;;;;;;18.30;4.75;;;16.10;99.90;;;;;;5051163;28;20025;-73
2022/09/10 00:57:27;;;;;;;22.30;5.13;;;16.10;99.90;;;;;;5051516;28;20048;-74
2022/09/10 01:00:00;;;;;;;18.73;5.20;;;16.10;99.90;;;;;;5050857;28;20025;-75
2022/09/10 01:02:26;;;;;;;16.38;5.43;;;16.00;99.90;;;;;;5051334;28;20033;-75
2022/09/10 01:04:55;;;;;;;17.85;4.68;;;16.00;99.90;;;;;;5068031;28;20112;-74
2022/09/10 01:07:24;;;;;;;17.65;5.25;;;16.00;99.90;;;;;;5034938;28;20024;-75
2022/09/10 01:09:51;;;;;;;19.90;5.07;;;16.00;99.90;;;;;;5050975;28;20021;-74
2022/09/10 01:12:30;;;;;;;23.88;5.15;;;16.00;99.90;;;;;;5068061;28;20039;-74
2022/09/10 01:15:50;;;;;;;24.45;6.63;;;16.00;99.90;;;;;;5050943;28;20060;-76
2022/09/10 01:18:27;;;;;;;25.73;6.47;;;15.90;99.90;;;;;;4994367;28;20053;-77
2022/09/10 01:20:59;;;;;;;24.20;6.65;;;15.90;99.90;;;;;;5077059;28;20040;-74
2022/09/10 01:23:43;;;;;;;;;;;16.00;99.90;;;;;;5067704;28;20035;-75
2022/09/10 01:26:44;;;;;;;21.25;7.07;;;15.90;99.90;;;;;;5052802;28;19933;-74
2022/09/10 01:29:36;;;;;;;25.85;7.85;;;16.00;99.90;;;;;;4974350;28;20069;-75
2022/09/10 01:32:16;;;;;;;26.42;9.75;;;16.00;99.90;;;;;;5049725;28;20516;-74
2022/09/10 01:34:52;;;;;;;23.77;9.48;;;16.00;99.90;;;;;;5067957;28;20049;-74
2022/09/10 01:37:24;;;;;;;23.93;8.73;;;16.00;99.90;;;;;;5067273;28;20025;-74
2022/09/10 01:39:51;;;;;;;;;;;15.90;99.90;;;;;;5051683;28;20302;-74
2022/09/10 01:42:17;;;;;;;25.08;9.43;;;15.90;99.90;;;;;;5067714;28;19956;-74
2022/09/10 01:44:49;;;;;;;26.02;9.45;;;16.00;99.90;;;;;;5051017;28;20021;-74
2022/09/10 01:47:30;;;;;;;28.20;10.52;;;16.00;99.90;;;;;;5050396;28;20485;-75
2022/09/10 01:50:11;;;;;;;31.33;9.65;;;16.00;99.90;;;;;;5053960;28;20056;-75
2022/09/10 01:52:50;;;;;;;27.65;9.73;;;16.10;99.90;;;;;;5067001;28;20121;-74
2022/09/10 01:55:22;;;;;;;32.85;11.55;;;16.00;99.90;;;;;;5067332;28;20032;-74
2022/09/10 01:58:20;;;;;;;29.00;10.60;;;16.00;99.90;;;;;;5067151;28;20065;-74
2022/09/10 02:01:07;;;;;;;27.25;10.73;;;15.90;99.90;;;;;;5051808;28;20120;-74
2022/09/10 02:03:36;;;;;;;25.02;10.70;;;15.90;99.90;;;;;;5034380;28;20033;-75
2022/09/10 02:06:04;;;;;;;23.15;11.18;;;15.90;99.90;;;;;;5050665;28;20112;-75
2022/09/10 02:08:37;;;;;;;27.45;10.95;;;16.00;99.90;;;;;;5049092;28;20064;-74
2022/09/10 02:11:08;;;;;;;37.92;13.30;;;15.90;99.90;;;;;;5047327;28;20017;-74
2022/09/10 02:13:38;;;;;;;27.60;11.70;;;15.90;99.90;;;;;;5071180;28;20082;-74
2022/09/10 02:16:24;;;;;;;33.72;12.00;;;15.90;99.90;;;;;;5071003;28;20040;-74
2022/09/10 02:18:49;;;;;;;26.35;10.95;;;15.80;99.90;;;;;;5071207;28;20112;-74
2022/09/10 02:21:16;;;;;;;28.42;12.93;;;15.80;99.90;;;;;;5055638;28;20035;-74
2022/09/10 02:23:45;;;;;;;34.90;13.98;;;15.90;99.90;;;;;;5055409;28;20107;-75
2022/09/10 02:26:13;;;;;;;27.83;13.05;;;15.90;99.90;;;;;;5054592;28;20447;-74
2022/09/10 02:28:40;;;;;;;30.10;13.90;;;16.00;99.90;;;;;;5054128;28;20595;-74
2022/09/10 02:31:06;;;;;;;32.03;14.82;;;15.90;99.90;;;;;;5055821;28;20024;-74
2022/09/10 02:33:32;;;;;;;30.92;14.70;;;15.90;99.90;;;;;;5053999;28;20028;-74
2022/09/10 02:35:57;;;;;;;29.42;14.30;;;15.90;99.90;;;;;;5053542;28;20479;-74
2022/09/10 02:38:23;;;;;;;39.03;16.67;;;15.90;99.90;;;;;;5054242;28;20048;-74
2022/09/10 02:40:49;;;;;;;30.15;13.93;;;15.90;99.90;;;;;;5054038;28;20484;-75
2022/09/10 02:43:16;;;;;;;36.45;16.52;;;15.90;99.90;;;;;;5054255;28;20496;-74
2022/09/10 02:45:42;;;;;;;38.17;18.33;;;15.90;99.90;;;;;;5070301;28;20182;-74
2022/09/10 02:48:08;;;;;;;31.70;19.23;;;15.80;99.90;;;;;;5055064;28;20079;-74
2022/09/10 02:50:35;;;;;;;43.45;19.60;;;15.90;99.90;;;;;;5070496;28;20068;-76
2022/09/10 02:53:02;;;;;;;36.20;19.23;;;15.80;99.90;;;;;;5054048;28;20025;-74
2022/09/10 02:55:30;;;;;;;41.95;21.63;;;15.90;99.90;;;;;;5070274;28;20370;-75
2022/09/10 02:57:57;;;;;;;32.88;20.75;;;15.90;99.90;;;;;;5070365;28;20033;-74
2022/09/10 03:00:23;;;;;;;38.35;19.90;;;16.00;99.90;;;;;;5053857;28;20032;-75
2022/09/10 03:02:49;;;;;;;29.20;18.17;;;16.10;99.90;;;;;;5054647;28;20032;-74
2022/09/10 03:05:16;;;;;;;41.42;19.73;;;16.00;99.90;;;;;;5053534;28;20029;-75
2022/09/10 03:07:42;;;;;;;29.40;18.70;;;15.90;99.90;;;;;;5055060;28;20052;-74
2022/09/10 03:10:09;;;;;;;34.53;20.17;;;16.00;99.90;;;;;;5053620;28;20366;-74
2022/09/10 03:12:35;;;;;;;43.13;20.85;;;15.90;99.90;;;;;;5055034;28;20076;-74
2022/09/10 03:15:01;;;;;;;40.22;21.30;;;15.90;99.90;;;;;;5053408;28;20036;-74
2022/09/10 03:17:27;;;;;;;37.28;21.17;;;15.90;99.90;;;;;;5070104;28;20032;-75
2022/09/10 03:19:53;;;;;;;36.63;19.85;;;15.90;99.90;;;;;;5052971;28;20025;-74
2022/09/10 03:22:20;;;;;;;33.33;21.30;;;16.00;99.90;;;;;;5053163;28;20021;-74
2022/09/10 03:24:47;;;;;;;29.90;20.35;;;16.00;99.90;;;;;;5053137;28;20462;-74
2022/09/10 03:27:15;;;;;;;30.08;20.10;;;15.90;99.90;;;;;;5053582;28;20036;-74
2022/09/10 03:29:42;;;;;;;28.90;19.90;;;15.90;99.90;;;;;;5053380;28;20040;-74
2022/09/10 03:32:07;;;;;;;34.80;20.67;;;15.90;99.90;;;;;;5053182;28;20013;-74
2022/09/10 03:34:33;;;;;;;35.38;22.17;;;16.00;99.90;;;;;;5052471;28;20044;-75
2022/09/10 03:36:59;;;;;;;38.60;21.42;;;15.90;99.90;;;;;;5053090;28;20074;-75
2022/09/10 03:39:26;;;;;;;34.70;21.67;;;16.00;99.90;;;;;;5053172;28;20037;-74
2022/09/10 03:41:52;;;;;;;42.38;22.95;;;16.00;99.90;;;;;;5058287;28;20458;-74
2022/09/10 03:44:18;;;;;;;38.58;22.35;;;15.90;99.90;;;;;;5052867;28;20025;-74
2022/09/10 03:46:47;;;;;;;34.78;21.38;;;16.00;99.90;;;;;;5053018;28;20028;-75
2022/09/10 03:49:16;;;;;;;39.58;23.85;;;16.00;99.90;;;;;;5052429;28;20025;-75
2022/09/10 03:51:42;;;;;;;37.65;23.13;;;16.10;99.90;;;;;;5053072;28;20021;-75
2022/09/10 03:54:08;;;;;;;37.80;22.48;;;16.10;99.90;;;;;;5052597;28;20370;-74
2022/09/10 03:56:34;;;;;;;43.90;24.35;;;16.00;99.90;;;;;;5052360;28;20131;-76
2022/09/10 03:59:00;;;;;;;41.97;22.17;;;16.00;99.90;;;;;;5052609;28;20553;-74
2022/09/10 04:01:27;;;;;;;39.30;22.83;;;15.90;99.90;;;;;;5069457;28;20090;-75
2022/09/10 04:03:55;;;;;;;43.42;23.65;;;16.00;99.90;;;;;;5052420;28;20461;-76
2022/09/10 04:06:23;;;;;;;42.55;22.73;;;15.90;99.90;;;;;;5052416;28;20453;-75
2022/09/10 04:08:51;;;;;;;44.13;23.08;;;15.90;99.90;;;;;;5052585;28;20413;-75
2022/09/10 04:11:19;;;;;;;45.28;23.70;;;15.90;99.90;;;;;;5053746;28;20384;-75
2022/09/10 04:13:47;;;;;;;33.67;21.75;;;16.00;99.90;;;;;;5052287;28;20025;-74
2022/09/10 04:16:14;;;;;;;39.13;22.38;;;15.90;99.90;;;;;;5052277;28;20389;-75
2022/09/10 04:18:41;;;;;;;36.85;23.48;;;16.00;99.90;;;;;;5052061;28;20021;-74
2022/09/10 04:21:07;;;;;;;37.85;23.55;;;16.00;99.90;;;;;;5052420;28;20481;-75
2022/09/10 04:23:34;;;;;;;34.67;22.67;;;16.00;99.90;;;;;;5052202;28;20025;-74
2022/09/10 04:26:16;;;;;;;37.17;22.25;;;16.10;99.90;;;;;;5051936;28;20535;-75
2022/09/10 04:28:44;;;;;;;33.45;21.50;;;16.00;99.90;;;;;;5052223;28;20079;-74
2022/09/10 04:31:10;;;;;;;34.08;21.73;;;15.90;99.90;;;;;;5051660;28;20032;-74
2022/09/10 04:33:37;;;;;;;34.65;21.13;;;15.90;99.90;;;;;;5067988;28;20025;-73
2022/09/10 04:36:05;;;;;;;38.70;23.23;;;15.90;99.90;;;;;;5051945;28;20086;-74
2022/09/10 04:38:32;;;;;;;43.30;24.48;;;15.90;99.90;;;;;;5051527;28;20047;-75
2022/09/10 04:40:59;;;;;;;40.13;23.73;;;15.90;99.90;;;;;;5052023;28;20086;-74
2022/09/10 04:43:26;;;;;;;35.25;23.25;;;15.80;99.90;;;;;;5052018;28;20025;-74
2022/09/10 04:45:55;;;;;;;40.70;23.77;;;15.90;99.90;;;;;;5068040;28;20115;-75
2022/09/10 04:48:22;;;;;;;37.17;24.08;;;15.90;99.90;;;;;;5051751;28;20485;-75
2022/09/10 04:50:52;;;;;;;44.25;26.05;;;15.80;99.90;;;;;;5051486;28;20412;-74
2022/09/10 04:53:20;;;;;;;43.80;25.15;;;15.90;99.90;;;;;;5051417;28;20017;-76
2022/09/10 04:55:48;;;;;;;43.15;22.33;;;15.90;99.90;;;;;;5051114;28;20033;-74
2022/09/10 04:58:15;;;;;;;43.22;26.27;;;15.80;99.90;;;;;;5068505;28;20375;-75
2022/09/10 05:00:42;;;;;;;44.92;27.70;;;15.90;99.90;;;;;;5067770;28;20083;-77
2022/09/10 05:03:09;;;;;;;40.28;26.00;;;15.90;99.90;;;;;;5051469;28;20020;-75
2022/09/10 05:05:36;;;;;;;38.03;26.58;;;15.70;99.90;;;;;;5051463;28;20036;-75
2022/09/10 05:08:06;;;;;;;45.78;26.35;;;15.70;99.90;;;;;;5051633;28;20070;-75
2022/09/10 05:10:34;;;;;;;47.30;26.17;;;15.80;99.90;;;;;;5051360;28;20098;-74
2022/09/10 05:13:01;;;;;;;51.40;26.27;;;15.80;99.90;;;;;;5051147;28;20039;-75
2022/09/10 05:15:27;;;;;;;34.92;25.08;;;15.80;99.90;;;;;;5051324;28;20033;-74
2022/09/10 05:17:54;;;;;;;44.25;25.73;;;15.90;99.90;;;;;;5051236;28;20036;-74
2022/09/10 05:20:21;;;;;;;40.72;26.13;;;15.90;99.90;;;;;;5051203;28;20024;-74
2022/09/10 05:22:55;;;;;;;43.80;23.23;;;15.80;99.90;;;;;;5067861;28;20425;-76
2022/09/10 05:25:22;;;;;;;43.83;24.42;;;15.80;99.90;;;;;;5051245;28;20028;-80
2022/09/10 05:27:48;;;;;;;46.22;26.55;;;15.70;99.90;;;;;;5067968;28;20029;-75
2022/09/10 05:30:17;;;;;;;38.80;25.25;;;15.70;99.90;;;;;;5067827;28;20064;-74
2022/09/10 05:32:44;;;;;;;38.05;23.83;;;15.60;99.90;;;;;;5067660;28;20110;-75
2022/09/10 05:35:12;;;;;;;47.92;25.75;;;15.60;99.90;;;;;;5067764;28;20496;-74
2022/09/10 05:37:41;;;;;;;42.80;27.40;;;15.70;99.90;;;;;;5051214;28;20071;-74
2022/09/10 05:40:12;;;;;;;37.75;23.10;;;15.70;99.90;;;;;;5051283;28;20029;-74
2022/09/10 05:42:37;;;;;;;42.72;24.67;;;15.70;99.90;;;;;;5053893;28;20465;-74
2022/09/10 05:45:04;;;;;;;39.17;24.73;;;15.60;99.90;;;;;;5052738;28;20040;-75
2022/09/10 05:47:30;;;;;;;43.47;23.50;;;15.70;99.90;;;;;;5071541;28;20377;-74
2022/09/10 05:49:58;;;;;;;39.22;25.50;;;15.80;99.90;;;;;;5055193;28;20026;-74
2022/09/10 05:52:25;;;;;;;41.50;24.75;;;15.70;99.90;;;;;;5054967;28;20045;-75
2022/09/10 05:54:51;;;;;;;39.38;24.27;;;15.80;99.90;;;;;;5041406;28;20063;-74
2022/09/10 05:57:17;;;;;;;39.53;24.52;;;15.70;99.90;;;;;;5068855;28;20445;-74
2022/09/10 05:59:43;;;;;;;39.67;25.05;;;15.80;99.90;;;;;;5043590;28;20030;-74
2022/09/10 06:02:15;;;;;;;44.50;24.17;;;15.90;99.90;;;;;;5050630;28;20124;-74
2022/09/10 06:04:41;;;;;;;44.38;24.92;;;15.90;99.90;;;;;;5043450;28;20112;-74
2022/09/10 06:07:08;;;;;;;42.30;25.13;;;15.90;99.90;;;;;;5051931;28;20021;-74
2022/09/10 06:09:34;;;;;;;39.22;23.58;;;15.90;99.90;;;;;;5053849;28;20029;-74
2022/09/10 06:12:18;;;;;;;36.83;23.75;;;15.90;99.90;;;;;;5054968;28;20035;-74
2022/09/10 06:14:44;;;;;;;39.72;25.13;;;15.80;99.90;;;;;;5066873;28;20037;-73
2022/09/10 06:17:11;;;;;;;46.45;24.30;;;15.90;99.90;;;;;;5044614;28;20025;-75
2022/09/10 06:19:38;;;;;;;38.03;24.23;;;15.80;99.90;;;;;;5057921;28;20029;-73
2022/09/10 06:22:06;;;;;;;42.78;24.95;;;15.80;99.90;;;;;;5041684;28;20417;-73
2022/09/10 06:24:37;;;;;;;41.78;24.00;;;15.80;99.90;;;;;;5045799;28;20493;-74
2022/09/10 06:27:04;;;;;;;41.95;24.48;;;15.70;99.90;;;;;;5053332;28;20166;-74
2022/09/10 06:29:32;;;;;;;37.92;24.08;;;15.90;99.90;;;;;;5053156;28;20036;-74
2022/09/10 06:31:59;;;;;;;39.22;23.88;;;15.90;99.90;;;;;;5057090;28;20037;-74
2022/09/10 06:34:25;;;;;;;39.53;24.00;;;15.80;99.90;;;;;;5053398;28;20250;-74
2022/09/10 06:36:51;;;;;;;39.90;19.25;;;15.70;99.90;;;;;;5053245;28;20052;-74
2022/09/10 06:39:19;;;;;;;41.92;23.67;;;15.80;99.90;;;;;;5070242;28;20033;-74
2022/09/10 06:41:48;;;;;;;35.53;20.75;;;15.80;99.90;;;;;;5069547;28;20322;-74
2022/09/10 06:44:34;;;;;;;44.17;22.17;;;15.90;99.90;;;;;;5042818;28;20028;-75
2022/09/10 06:47:10;;;;;;;32.97;18.58;;;16.00;99.90;;;;;;5038320;28;20086;-75
2022/09/10 06:49:36;;;;;;;41.85;21.75;;;15.90;99.90;;;;;;5053330;28;20029;-74
2022/09/10 06:52:03;;;;;;;40.45;22.02;;;15.90;99.90;;;;;;5052924;28;20032;-73
2022/09/10 06:54:29;;;;;;;37.75;22.15;;;16.10;99.90;;;;;;5067855;28;20048;-73
2022/09/10 06:57:00;;;;;;;42.80;20.98;;;16.00;99.90;;;;;;5053199;28;20025;-78
2022/09/10 06:59:26;;;;;;;41.70;22.27;;;16.00;99.90;;;;;;5051968;28;20490;-73
2022/09/10 07:01:51;;;;;;;36.15;20.75;;;16.00;99.90;;;;;;5052257;28;20021;-73
2022/09/10 07:04:19;;;;;;;43.22;20.35;;;16.00;99.90;;;;;;5052264;28;20108;-75
2022/09/10 07:06:46;;;;;;;50.20;22.60;;;16.10;99.90;;;;;;5065455;28;20117;-73
2022/09/10 07:09:14;;;;;;;36.80;21.38;;;16.10;99.90;;;;;;5050255;28;20040;-74
2022/09/10 07:11:50;;;;;;;27.85;18.30;;;16.10;99.90;;;;;;5052796;28;20078;-73
2022/09/10 07:14:18;;;;;;;41.10;19.00;;;16.10;99.90;;;;;;5053241;28;20032;-74
2022/09/10 07:16:45;;;;;;;36.80;20.02;;;16.30;99.90;;;;;;5051984;28;20020;-73
2022/09/10 07:19:13;;;;;;;32.60;20.40;;;16.30;99.90;;;;;;5036433;28;20429;-73
2022/09/10 07:21:43;;;;;;;33.97;19.58;;;16.10;99.90;;;;;;5052229;28;20083;-72
2022/09/10 07:24:11;;;;;;;36.53;19.83;;;16.10;99.90;;;;;;5052043;28;20048;-73
2022/09/10 07:26:40;;;;;;;31.65;19.98;;;16.20;99.90;;;;;;5051912;28;20029;-73
2022/09/10 07:29:06;;;;;;;32.08;18.35;;;16.10;99.90;;;;;;5052068;28;20624;-78
2022/09/10 07:31:34;;;;;;;40.05;20.08;;;16.00;99.90;;;;;;5048369;28;20067;-72
2022/09/10 07:34:05;;;;;;;34.50;19.83;;;16.00;99.90;;;;;;5065325;28;20067;-71
2022/09/10 07:36:31;;;;;;;34.35;18.92;;;16.10;99.90;;;;;;5045482;28;20049;-76
2022/09/10 07:39:00;;;;;;;38.50;20.27;;;16.00;99.90;;;;;;5035256;28;20021;-77
2022/09/10 07:41:29;;;;;;;33.42;20.85;;;16.00;99.90;;;;;;5052366;28;20354;-76
2022/09/10 07:43:58;;;;;;;39.40;20.00;;;16.10;99.90;;;;;;5057822;28;20021;-77
2022/09/10 07:46:28;;;;;;;36.05;20.83;;;16.10;99.90;;;;;;5066611;28;20397;-76
2022/09/10 07:48:58;;;;;;;38.22;22.38;;;16.10;99.90;;;;;;5067935;28;20474;-76
2022/09/10 07:51:25;;;;;;;43.13;23.50;;;16.00;99.90;;;;;;5068416;28;20021;-76
2022/09/10 07:53:54;;;;;;;39.20;21.92;;;16.10;99.90;;;;;;5051698;28;20017;-76
2022/09/10 07:56:24;;;;;;;35.85;22.83;;;16.20;99.90;;;;;;5051049;28;20040;-76
2022/09/10 07:58:52;;;;;;;42.58;23.00;;;16.30;99.90;;;;;;5050495;28;20025;-76
2022/09/10 08:01:19;;;;;;;38.33;22.20;;;16.40;99.90;;;;;;5066508;28;20025;-76
2022/09/10 08:03:46;;;;;;;36.53;21.58;;;16.40;99.90;;;;;;5051138;28;20028;-76
2022/09/10 08:06:15;;;;;;;47.65;23.13;;;16.40;99.90;;;;;;5047338;28;20094;-76
2022/09/10 08:08:41;;;;;;;35.03;21.15;;;16.40;99.90;;;;;;5049729;28;20032;-76
2022/09/10 08:11:13;;;;;;;38.03;19.92;;;16.50;99.90;;;;;;5065133;28;20036;-76
2022/09/10 08:13:46;;;;;;;31.95;20.13;;;16.50;99.90;;;;;;5070673;28;20032;-76
2022/09/10 08:16:19;;;;;;;40.42;20.58;;;16.50;99.90;;;;;;5051031;28;20025;-76
2022/09/10 08:18:46;;;;;;;51.90;20.58;;;16.40;99.90;;;;;;5052279;28;20028;-77
2022/09/10 08:21:14;;;;;;;34.35;21.52;;;16.40;99.90;;;;;;5052256;28;20025;-77
2022/09/10 08:23:40;;;;;;;32.35;20.80;;;16.40;99.90;;;;;;5051555;28;20033;-77
2022/09/10 08:26:07;;;;;;;46.10;22.75;;;16.50;99.90;;;;;;5051888;28;20539;-78
2022/09/10 08:28:36;;;;;;;40.55;21.05;;;16.40;99.90;;;;;;5068631;28;20095;-77
2022/09/10 08:31:15;;;;;;;44.55;22.50;;;16.40;99.90;;;;;;5050005;28;20400;-65
2022/09/10 08:33:50;;;;;;;42.85;22.85;;;16.50;99.90;;;;;;5048698;28;20037;-66
2022/09/10 08:36:17;;;;;;;33.60;23.13;;;16.50;99.90;;;;;;5048436;28;20047;-65
2022/09/10 08:38:44;;;;;;;41.40;25.40;;;16.60;99.90;;;;;;5048379;28;20428;-65
2022/09/10 08:41:14;;;;;;;42.88;36.20;;;16.70;99.90;;;;;;5048555;28;20028;-65
2022/09/10 08:43:48;;;;;;;55.50;45.92;;;16.60;99.90;;;;;;5049871;28;20041;-65
2022/09/10 08:46:24;;;;;;;57.97;43.20;;;16.70;99.90;;;;;;5048636;28;20025;-65
2022/09/10 08:48:59;;;;;;;47.63;36.38;;;16.70;99.90;;;;;;5048404;28;20032;-65
2022/09/10 08:51:29;;;;;;;54.22;36.42;;;16.70;99.90;;;;;;5016285;28;20143;-65
2022/09/10 08:54:07;;;;;;;52.53;33.55;;;16.70;99.90;;;;;;5047484;28;20025;-65
2022/09/10 08:56:33;;;;;;;41.33;29.67;;;16.90;99.90;;;;;;5048358;28;20116;-65
2022/09/10 08:59:24;;;;;;;39.55;26.80;;;16.90;99.90;;;;;;5049284;28;20050;-65
2022/09/10 09:02:13;;;;;;;42.33;24.42;;;17.00;99.90;;;;;;5040361;28;20075;-65
2022/09/10 09:04:44;;;;;;;42.58;22.77;;;16.90;99.90;;;;;;5049286;28;20074;-65
2022/09/10 09:07:18;;;;;;;36.15;23.13;;;16.80;99.90;;;;;;5047981;28;20033;-65
2022/09/10 09:09:52;;;;;;;34.75;22.23;;;17.00;99.90;;;;;;5048120;28;20474;-65
2022/09/10 09:12:37;;;;;;;39.38;21.15;;;17.20;99.90;;;;;;5047900;28;20025;-65
2022/09/10 09:15:14;;;;;;;37.60;21.52;;;16.90;99.90;;;;;;5047820;28;20033;-65
2022/09/10 09:17:49;;;;;;;39.05;20.75;;;16.90;99.90;;;;;;5048063;28;20532;-65
2022/09/10 09:20:25;;;;;;;30.98;20.17;;;16.80;99.90;;;;;;5047907;28;20162;-65
2022/09/10 09:23:09;;;;;;;40.28;20.63;;;16.70;99.90;;;;;;5048146;28;20112;-65
2022/09/10 09:26:04;;;;;;;32.65;20.27;;;16.70;99.90;;;;;;5010711;28;20018;-68
2022/09/10 09:28:49;;;;;;;33.92;19.70;;;16.70;99.90;;;;;;5011690;28;20022;-65
2022/09/10 09:31:29;;;;;;;34.28;20.40;;;16.80;99.90;;;;;;5026573;28;20513;-65
2022/09/10 09:34:40;;;;;;;32.70;19.48;;;16.90;99.90;;;;;;5027455;28;20104;-67
2022/09/10 09:37:17;;;;;;;31.42;19.63;;;16.80;99.90;;;;;;5018821;28;20059;-65
2022/09/10 09:40:03;;;;;;;40.88;20.38;;;17.10;99.90;;;;;;5027771;28;20401;-65
2022/09/10 09:42:50;;;;;;;33.05;18.63;;;17.20;99.90;;;;;;5014758;28;20022;-65
2022/09/10 09:45:38;;;;;;;27.38;18.42;;;17.10;99.90;;;;;;5009163;28;20030;-65
2022/09/10 09:48:05;;;;;;;30.00;19.15;;;17.30;99.90;;;;;;5015329;28;20490;-65
2022/09/10 09:50:33;;;;;;;24.95;18.63;;;17.30;99.90;;;;;;5009675;28;20034;-65
2022/09/10 09:52:59;;;;;;;34.10;18.10;;;17.20;99.90;;;;;;5002556;28;20030;-65
2022/09/10 09:55:28;;;;;;;30.40;19.98;;;17.30;99.90;;;;;;4998187;28;20034;-65
2022/09/10 09:58:28;;;;;;;30.45;17.85;;;17.50;99.90;;;;;;5013062;28;20108;-65
2022/09/10 10:01:03;;;;;;;35.70;18.33;;;17.30;99.90;;;;;;5012141;28;20056;-65
2022/09/10 10:03:50;;;;;;;34.78;19.13;;;17.40;99.90;;;;;;5005094;28;20077;-65
2022/09/10 10:06:19;;;;;;;38.72;18.70;;;17.40;99.90;;;;;;4997447;28;20069;-65
2022/09/10 10:09:05;;;;;;;33.83;18.98;;;17.20;99.90;;;;;;4997468;28;20026;-64
2022/09/10 10:11:53;;;;;;;29.30;17.98;;;17.20;99.90;;;;;;4995726;28;20034;-65
2022/09/10 10:14:21;;;;;;;27.17;17.25;;;17.30;99.90;;;;;;5002380;28;20049;-67
2022/09/10 10:16:53;;;;;;;36.25;16.92;;;17.20;99.90;;;;;;5003554;28;20047;-65
2022/09/10 10:19:35;;;;;;;33.88;17.92;;;17.10;99.90;;;;;;4997569;28;20034;-65
2022/09/10 10:22:13;;;;;;;34.25;18.35;;;17.10;99.90;;;;;;4997990;28;20018;-65
2022/09/10 10:24:41;;;;;;;26.95;15.05;;;17.10;99.90;;;;;;4996380;28;20035;-65
2022/09/10 10:27:44;;;;;;;25.33;13.43;;;17.10;99.90;;;;;;4996368;28;20438;-66
2022/09/10 10:30:16;;;;;;;28.55;14.02;;;17.00;99.90;;;;;;5003688;28;20059;-65
2022/09/10 10:32:58;;;;;;;26.70;13.02;;;17.10;99.90;;;;;;4996015;28;20027;-65
2022/09/10 10:35:52;;;;;;;28.83;13.30;;;17.00;99.90;;;;;;4999571;28;20037;-65
2022/09/10 10:38:32;;;;;;;28.73;13.95;;;17.00;99.90;;;;;;4994517;28;20137;-65
2022/09/10 10:41:25;;;;;;;24.67;12.90;;;17.00;99.90;;;;;;5005448;28;20065;-65
2022/09/10 10:44:06;;;;;;;36.28;14.98;;;17.10;99.90;;;;;;5001689;28;20034;-65
2022/09/10 10:46:52;;;;;;;28.33;14.25;;;17.10;99.90;;;;;;4996060;28;20113;-65
2022/09/10 10:49:21;;;;;;;29.55;15.23;;;17.00;99.90;;;;;;4995338;28;20030;-65
2022/09/10 10:51:50;;;;;;;30.10;14.93;;;17.20;99.90;;;;;;4995016;28;20072;-65
2022/09/10 10:54:36;;;;;;;22.75;13.20;;;17.10;99.90;;;;;;4998909;28;20026;-65
2022/09/10 10:57:10;;;;;;;27.92;14.73;;;17.00;99.90;;;;;;5014198;28;20026;-65
2022/09/10 11:00:03;;;;;;;26.38;15.02;;;17.30;99.90;;;;;;5014180;28;20022;-65
2022/09/10 11:02:44;;;;;;;31.30;16.20;;;17.40;99.90;;;;;;5013625;28;20516;-65
2022/09/10 11:05:37;;;;;;;32.60;16.05;;;17.10;99.90;;;;;;5014153;28;20402;-65
2022/09/10 11:08:15;;;;;;;27.95;15.00;;;17.20;99.90;;;;;;5011320;28;20037;-65
2022/09/10 11:10:55;;;;;;;32.70;16.00;;;17.10;99.90;;;;;;5011498;28;20121;-65
2022/09/10 11:13:43;;;;;;;26.35;14.50;;;17.30;99.90;;;;;;5013707;28;20041;-65
2022/09/10 11:16:19;;;;;;;27.08;15.13;;;17.30;99.90;;;;;;4996045;28;20088;-66
2022/09/10 11:18:48;;;;;;;31.55;15.88;;;17.40;99.90;;;;;;5002906;28;20100;-66
2022/09/10 11:21:48;;;;;;;24.23;14.82;;;17.30;99.90;;;;;;5009811;28;20026;-66
2022/09/10 11:24:28;;;;;;;23.63;15.20;;;17.20;99.90;;;;;;5010683;28;20053;-65
2022/09/10 11:27:26;;;;;;;26.88;13.80;;;17.20;99.90;;;;;;5005426;28;20037;-65
2022/09/10 11:30:04;;;;;;;20.02;13.38;;;17.30;99.90;;;;;;5004889;28;20125;-65
2022/09/10 11:32:38;;;;;;;28.95;14.05;;;17.30;99.90;;;;;;5012973;28;20021;-65
2022/09/10 11:35:35;;;;;;;26.83;14.32;;;17.40;99.90;;;;;;5003272;28;20117;-65
2022/09/10 11:38:28;;;;;;;23.67;12.98;;;17.50;99.90;;;;;;5003708;28;20037;-65
2022/09/10 11:41:09;;;;;;;23.17;13.02;;;17.50;99.90;;;;;;5003036;28;20026;-65
2022/09/10 11:43:38;;;;;;;29.45;12.93;;;17.50;99.90;;;;;;5011162;28;20036;-65
2022/09/10 11:46:17;;;;;;;27.70;11.68;;;17.70;99.90;;;;;;5003072;28;20033;-65
2022/09/10 11:48:55;;;;;;;26.23;12.02;;;17.80;99.90;;;;;;4999648;28;20080;-65
2022/09/10 11:51:32;;;;;;;19.23;11.48;;;17.80;99.90;;;;;;5011473;28;21687;-65
2022/09/10 11:54:02;;;;;;;22.60;11.30;;;17.90;99.90;;;;;;5009214;28;20462;-64
2022/09/10 11:56:51;;;;;;;18.73;9.65;;;17.70;99.90;;;;;;5011304;28;20389;-65
2022/09/10 11:59:38;;;;;;;26.52;10.27;;;17.70;99.90;;;;;;5010391;28;20034;-65
2022/09/10 12:02:15;;;;;;;23.08;10.57;;;17.70;99.90;;;;;;5015571;28;20061;-65
2022/09/10 12:05:18;;;;;;;14.50;9.00;;;17.60;99.90;;;;;;5003988;28;20033;-64
2022/09/10 12:08:13;;;;;;;15.80;7.68;;;17.50;99.90;;;;;;4977589;28;20047;-65
2022/09/10 12:11:41;;;;;;;15.02;7.22;;;17.40;99.90;;;;;;5016270;28;20037;-65
2022/09/10 12:14:16;;;;;;;7.72;6.32;;;17.20;99.90;;;;;;4917568;29;20051;-65
2022/09/10 12:16:50;;;;;;;15.98;5.80;;;17.20;99.90;;;;;;4944589;28;20045;-65
2022/09/10 12:19:25;;;;;;;15.15;6.78;;;17.40;99.90;;;;;;5016465;28;20621;-65
2022/09/10 12:21:57;;;;;;;12.15;5.78;;;17.40;99.90;;;;;;4998972;28;20356;-65
2022/09/10 12:24:30;;;;;;;14.10;5.53;;;17.60;99.90;;;;;;5019318;28;20470;-64
2022/09/10 12:26:59;;;;;;;13.32;5.88;;;17.50;99.90;;;;;;5013125;28;20052;-65
2022/09/10 12:29:28;;;;;;;13.13;5.50;;;17.60;99.90;;;;;;5014788;28;20033;-65
2022/09/10 12:32:19;;;;;;;11.02;4.90;;;17.40;99.90;;;;;;5015571;28;20177;-65
2022/09/10 12:34:49;;;;;;;10.82;4.85;;;17.50;99.90;;;;;;5018263;28;20026;-65
2022/09/10 12:37:22;;;;;;;11.43;4.90;;;17.50;99.90;;;;;;5007257;28;20054;-65
2022/09/10 12:40:08;;;;;;;16.52;3.92;;;17.40;99.90;;;;;;5002452;28;20026;-64
2022/09/10 12:42:35;;;;;;;7.80;3.65;;;17.40;99.90;;;;;;4997601;28;20056;-65
2022/09/10 12:45:01;;;;;;;12.40;4.78;;;17.40;99.90;;;;;;4995538;28;20014;-65
2022/09/10 12:47:39;;;;;;;9.43;3.63;;;17.50;99.90;;;;;;4994852;28;20038;-64
2022/09/10 12:50:30;;;;;;;7.15;3.05;;;17.50;99.90;;;;;;5005998;28;20033;-65
2022/09/10 12:53:12;;;;;;;12.30;4.40;;;17.70;99.90;;;;;;5011769;28;20033;-65
2022/09/10 12:55:50;;;;;;;11.52;3.40;;;18.10;99.90;;;;;;5011513;28;20057;-65
2022/09/10 12:58:28;;;;;;;6.05;3.13;;;18.70;99.90;;;;;;5012304;28;20034;-65